sensor_id;sensor_type;location;lat;lon;timestamp;P1;durP1;ratioP1;P2;durP2;ratioP2
10705;SDS011;5404;42.656;23.336;2024-02-14T00:00:34;9.63;;;6.57;;
10705;SDS011;5404;42.656;23.336;2024-02-14T00:03:00;13.13;;;8.02;;
10705;SDS011;5404;42.656;23.336;2024-02-14T00:05:26;13.18;;;8.90;;
10705;SDS011;5404;42.656;23.336;2024-02-14T00:07:51;13.32;;;8.50;;
10705;SDS011;5404;42.656;23.336;2024-02-14T00:10:17;14.18;;;8.27;;
10705;SDS011;5404;42.656;23.336;2024-02-14T00:12:42;15.50;;;8.48;;
10705;SDS011;5404;42.656;23.336;2024-02-14T00:15:08;15.85;;;8.50;;
10705;SDS011;5404;42.656;23.336;2024-02-14T00:17:34;11.95;;;8.38;;
10705;SDS011;5404;42.656;23.336;2024-02-14T00:20:00;15.52;;;8.90;;
10705;SDS011;5404;42.656;23.336;2024-02-14T00:22:26;15.43;;;8.13;;
10705;SDS011;5404;42.656;23.336;2024-02-14T00:24:51;15.90;;;9.45;;
10705;SDS011;5404;42.656;23.336;2024-02-14T00:27:17;16.15;;;8.98;;
10705;SDS011;5404;42.656;23.336;2024-02-14T00:29:43;13.55;;;7.95;;
10705;SDS011;5404;42.656;23.336;2024-02-14T00:32:10;14.13;;;8.90;;
10705;SDS011;5404;42.656;23.336;2024-02-14T00:34:36;13.20;;;9.00;;
10705;SDS011;5404;42.656;23.336;2024-02-14T00:37:02;12.80;;;9.02;;
10705;SDS011;5404;42.656;23.336;2024-02-14T00:39:28;14.15;;;9.05;;
10705;SDS011;5404;42.656;23.336;2024-02-14T00:41:53;12.82;;;8.30;;
10705;SDS011;5404;42.656;23.336;2024-02-14T00:44:20;12.10;;;8.38;;
10705;SDS011;5404;42.656;23.336;2024-02-14T00:46:45;18.48;;;9.63;;
10705;SDS011;5404;42.656;23.336;2024-02-14T00:49:11;12.88;;;7.22;;
10705;SDS011;5404;42.656;23.336;2024-02-14T00:51:36;13.32;;;8.57;;
10705;SDS011;5404;42.656;23.336;2024-02-14T00:54:05;12.90;;;8.60;;
10705;SDS011;5404;42.656;23.336;2024-02-14T00:56:32;18.05;;;8.90;;
10705;SDS011;5404;42.656;23.336;2024-02-14T00:58:57;13.50;;;8.32;;
10705;SDS011;5404;42.656;23.336;2024-02-14T01:01:23;14.88;;;9.20;;
10705;SDS011;5404;42.656;23.336;2024-02-14T01:03:48;15.55;;;8.85;;
10705;SDS011;5404;42.656;23.336;2024-02-14T01:06:14;15.07;;;9.13;;
10705;SDS011;5404;42.656;23.336;2024-02-14T01:08:40;12.57;;;8.95;;
10705;SDS011;5404;42.656;23.336;2024-02-14T01:11:09;14.88;;;9.35;;
10705;SDS011;5404;42.656;23.336;2024-02-14T01:13:35;13.68;;;9.32;;
10705;SDS011;5404;42.656;23.336;2024-02-14T01:16:00;16.88;;;9.45;;
10705;SDS011;5404;42.656;23.336;2024-02-14T01:18:27;15.93;;;9.88;;
10705;SDS011;5404;42.656;23.336;2024-02-14T01:20:52;15.70;;;10.30;;
10705;SDS011;5404;42.656;23.336;2024-02-14T01:23:19;17.27;;;9.80;;
10705;SDS011;5404;42.656;23.336;2024-02-14T01:25:45;17.98;;;9.85;;
10705;SDS011;5404;42.656;23.336;2024-02-14T01:28:10;16.20;;;9.43;;
10705;SDS011;5404;42.656;23.336;2024-02-14T01:30:36;15.95;;;8.90;;
10705;SDS011;5404;42.656;23.336;2024-02-14T01:33:02;17.83;;;10.15;;
10705;SDS011;5404;42.656;23.336;2024-02-14T01:35:29;17.73;;;9.20;;
10705;SDS011;5404;42.656;23.336;2024-02-14T01:37:54;15.38;;;9.07;;
10705;SDS011;5404;42.656;23.336;2024-02-14T01:40:20;14.70;;;9.75;;
10705;SDS011;5404;42.656;23.336;2024-02-14T01:42:46;14.32;;;9.65;;
10705;SDS011;5404;42.656;23.336;2024-02-14T01:45:11;18.05;;;10.10;;
10705;SDS011;5404;42.656;23.336;2024-02-14T01:47:37;18.92;;;10.82;;
10705;SDS011;5404;42.656;23.336;2024-02-14T01:50:05;14.77;;;9.38;;
10705;SDS011;5404;42.656;23.336;2024-02-14T01:52:33;14.75;;;9.77;;
10705;SDS011;5404;42.656;23.336;2024-02-14T01:55:00;15.98;;;9.63;;
10705;SDS011;5404;42.656;23.336;2024-02-14T01:57:27;15.65;;;10.57;;
10705;SDS011;5404;42.656;23.336;2024-02-14T01:59:53;18.88;;;9.90;;
10705;SDS011;5404;42.656;23.336;2024-02-14T02:02:21;15.23;;;9.48;;
10705;SDS011;5404;42.656;23.336;2024-02-14T02:04:47;14.68;;;9.38;;
10705;SDS011;5404;42.656;23.336;2024-02-14T02:07:12;15.10;;;9.55;;
10705;SDS011;5404;42.656;23.336;2024-02-14T02:09:38;16.48;;;11.18;;
10705;SDS011;5404;42.656;23.336;2024-02-14T02:12:04;15.73;;;10.35;;
10705;SDS011;5404;42.656;23.336;2024-02-14T02:14:32;18.02;;;10.05;;
10705;SDS011;5404;42.656;23.336;2024-02-14T02:16:58;17.38;;;10.40;;
10705;SDS011;5404;42.656;23.336;2024-02-14T02:19:24;19.45;;;10.98;;
10705;SDS011;5404;42.656;23.336;2024-02-14T02:21:49;17.50;;;10.77;;
10705;SDS011;5404;42.656;23.336;2024-02-14T02:24:15;17.73;;;10.48;;
10705;SDS011;5404;42.656;23.336;2024-02-14T02:26:40;17.02;;;10.30;;
10705;SDS011;5404;42.656;23.336;2024-02-14T02:29:05;16.08;;;9.60;;
10705;SDS011;5404;42.656;23.336;2024-02-14T02:31:31;15.35;;;9.80;;
10705;SDS011;5404;42.656;23.336;2024-02-14T02:33:57;17.02;;;9.57;;
10705;SDS011;5404;42.656;23.336;2024-02-14T02:36:22;18.58;;;10.18;;
10705;SDS011;5404;42.656;23.336;2024-02-14T02:38:50;19.95;;;10.43;;
10705;SDS011;5404;42.656;23.336;2024-02-14T02:41:15;17.45;;;10.45;;
10705;SDS011;5404;42.656;23.336;2024-02-14T02:43:41;17.25;;;10.27;;
10705;SDS011;5404;42.656;23.336;2024-02-14T02:46:08;15.20;;;9.77;;
10705;SDS011;5404;42.656;23.336;2024-02-14T02:48:34;15.07;;;10.02;;
10705;SDS011;5404;42.656;23.336;2024-02-14T02:51:01;17.58;;;10.45;;
10705;SDS011;5404;42.656;23.336;2024-02-14T02:53:26;18.40;;;10.55;;
10705;SDS011;5404;42.656;23.336;2024-02-14T02:55:52;15.82;;;10.52;;
10705;SDS011;5404;42.656;23.336;2024-02-14T02:58:19;16.42;;;10.10;;
10705;SDS011;5404;42.656;23.336;2024-02-14T03:00:46;18.42;;;10.27;;
10705;SDS011;5404;42.656;23.336;2024-02-14T03:03:14;15.77;;;10.25;;
10705;SDS011;5404;42.656;23.336;2024-02-14T03:05:41;13.90;;;9.25;;
10705;SDS011;5404;42.656;23.336;2024-02-14T03:08:06;18.52;;;10.82;;
10705;SDS011;5404;42.656;23.336;2024-02-14T03:10:33;14.88;;;10.00;;
10705;SDS011;5404;42.656;23.336;2024-02-14T03:12:58;16.48;;;10.23;;
10705;SDS011;5404;42.656;23.336;2024-02-14T03:15:24;16.20;;;10.60;;
10705;SDS011;5404;42.656;23.336;2024-02-14T03:17:50;17.48;;;10.75;;
10705;SDS011;5404;42.656;23.336;2024-02-14T03:20:16;18.08;;;10.73;;
10705;SDS011;5404;42.656;23.336;2024-02-14T03:22:42;17.23;;;11.20;;
10705;SDS011;5404;42.656;23.336;2024-02-14T03:25:11;20.90;;;10.32;;
10705;SDS011;5404;42.656;23.336;2024-02-14T03:27:41;17.00;;;10.05;;
10705;SDS011;5404;42.656;23.336;2024-02-14T03:30:07;19.55;;;10.63;;
10705;SDS011;5404;42.656;23.336;2024-02-14T03:32:33;16.30;;;10.55;;
10705;SDS011;5404;42.656;23.336;2024-02-14T03:34:58;16.65;;;10.38;;
10705;SDS011;5404;42.656;23.336;2024-02-14T03:37:25;20.48;;;11.57;;
10705;SDS011;5404;42.656;23.336;2024-02-14T03:39:51;18.23;;;10.93;;
10705;SDS011;5404;42.656;23.336;2024-02-14T03:42:17;18.00;;;9.38;;
10705;SDS011;5404;42.656;23.336;2024-02-14T03:44:44;23.05;;;11.27;;
10705;SDS011;5404;42.656;23.336;2024-02-14T03:47:10;16.60;;;10.98;;
10705;SDS011;5404;42.656;23.336;2024-02-14T03:49:37;18.70;;;10.73;;
10705;SDS011;5404;42.656;23.336;2024-02-14T03:52:03;18.63;;;11.32;;
10705;SDS011;5404;42.656;23.336;2024-02-14T03:54:34;18.33;;;10.02;;
10705;SDS011;5404;42.656;23.336;2024-02-14T03:57:03;16.85;;;10.20;;
10705;SDS011;5404;42.656;23.336;2024-02-14T03:59:35;18.83;;;10.30;;
10705;SDS011;5404;42.656;23.336;2024-02-14T04:02:01;23.17;;;11.15;;
10705;SDS011;5404;42.656;23.336;2024-02-14T04:04:26;19.90;;;10.90;;
10705;SDS011;5404;42.656;23.336;2024-02-14T04:06:52;17.08;;;10.52;;
10705;SDS011;5404;42.656;23.336;2024-02-14T04:09:17;15.85;;;10.55;;
10705;SDS011;5404;42.656;23.336;2024-02-14T04:11:42;17.05;;;10.80;;
10705;SDS011;5404;42.656;23.336;2024-02-14T04:14:08;18.35;;;10.82;;
10705;SDS011;5404;42.656;23.336;2024-02-14T04:16:33;16.83;;;11.20;;
10705;SDS011;5404;42.656;23.336;2024-02-14T04:18:59;17.58;;;11.20;;
10705;SDS011;5404;42.656;23.336;2024-02-14T04:21:24;16.00;;;9.98;;
10705;SDS011;5404;42.656;23.336;2024-02-14T04:23:50;18.10;;;10.95;;
10705;SDS011;5404;42.656;23.336;2024-02-14T04:26:21;17.55;;;10.13;;
10705;SDS011;5404;42.656;23.336;2024-02-14T04:28:47;19.58;;;8.98;;
10705;SDS011;5404;42.656;23.336;2024-02-14T04:31:12;16.77;;;10.63;;
10705;SDS011;5404;42.656;23.336;2024-02-14T04:33:37;24.95;;;11.52;;
10705;SDS011;5404;42.656;23.336;2024-02-14T04:36:03;23.77;;;11.30;;
10705;SDS011;5404;42.656;23.336;2024-02-14T04:38:30;17.73;;;11.15;;
10705;SDS011;5404;42.656;23.336;2024-02-14T04:40:55;15.32;;;9.77;;
10705;SDS011;5404;42.656;23.336;2024-02-14T04:43:23;16.75;;;10.73;;
10705;SDS011;5404;42.656;23.336;2024-02-14T04:45:52;19.00;;;11.55;;
10705;SDS011;5404;42.656;23.336;2024-02-14T04:48:18;22.05;;;13.05;;
10705;SDS011;5404;42.656;23.336;2024-02-14T04:50:43;22.90;;;12.73;;
10705;SDS011;5404;42.656;23.336;2024-02-14T04:53:09;21.63;;;12.15;;
10705;SDS011;5404;42.656;23.336;2024-02-14T04:55:34;23.88;;;13.52;;
10705;SDS011;5404;42.656;23.336;2024-02-14T04:58:00;20.65;;;12.57;;
10705;SDS011;5404;42.656;23.336;2024-02-14T05:00:25;25.30;;;13.85;;
10705;SDS011;5404;42.656;23.336;2024-02-14T05:02:51;22.95;;;13.15;;
10705;SDS011;5404;42.656;23.336;2024-02-14T05:05:16;28.13;;;13.63;;
10705;SDS011;5404;42.656;23.336;2024-02-14T05:07:42;22.80;;;12.80;;
10705;SDS011;5404;42.656;23.336;2024-02-14T05:10:07;30.05;;;14.15;;
10705;SDS011;5404;42.656;23.336;2024-02-14T05:12:33;23.83;;;14.05;;
10705;SDS011;5404;42.656;23.336;2024-02-14T05:14:58;23.88;;;14.25;;
10705;SDS011;5404;42.656;23.336;2024-02-14T05:17:24;26.00;;;13.98;;
10705;SDS011;5404;42.656;23.336;2024-02-14T05:19:49;24.25;;;14.25;;
10705;SDS011;5404;42.656;23.336;2024-02-14T05:22:15;23.63;;;13.30;;
10705;SDS011;5404;42.656;23.336;2024-02-14T05:24:40;23.70;;;14.52;;
10705;SDS011;5404;42.656;23.336;2024-02-14T05:27:05;26.75;;;15.52;;
10705;SDS011;5404;42.656;23.336;2024-02-14T05:29:31;24.33;;;15.07;;
10705;SDS011;5404;42.656;23.336;2024-02-14T05:31:57;23.30;;;13.88;;
10705;SDS011;5404;42.656;23.336;2024-02-14T05:34:22;24.20;;;15.15;;
10705;SDS011;5404;42.656;23.336;2024-02-14T05:36:48;28.52;;;15.50;;
10705;SDS011;5404;42.656;23.336;2024-02-14T05:39:13;25.65;;;15.38;;
10705;SDS011;5404;42.656;23.336;2024-02-14T05:41:40;22.42;;;13.35;;
10705;SDS011;5404;42.656;23.336;2024-02-14T05:44:06;28.35;;;15.50;;
10705;SDS011;5404;42.656;23.336;2024-02-14T05:46:31;26.00;;;14.50;;
10705;SDS011;5404;42.656;23.336;2024-02-14T05:48:57;28.02;;;14.68;;
10705;SDS011;5404;42.656;23.336;2024-02-14T05:51:23;33.85;;;14.30;;
10705;SDS011;5404;42.656;23.336;2024-02-14T05:53:49;28.40;;;15.52;;
10705;SDS011;5404;42.656;23.336;2024-02-14T05:56:14;22.23;;;13.80;;
10705;SDS011;5404;42.656;23.336;2024-02-14T05:58:39;23.63;;;14.75;;
10705;SDS011;5404;42.656;23.336;2024-02-14T06:01:05;23.70;;;13.82;;
10705;SDS011;5404;42.656;23.336;2024-02-14T06:03:31;25.73;;;15.25;;
10705;SDS011;5404;42.656;23.336;2024-02-14T06:05:57;25.00;;;14.77;;
10705;SDS011;5404;42.656;23.336;2024-02-14T06:08:22;26.83;;;14.45;;
10705;SDS011;5404;42.656;23.336;2024-02-14T06:10:52;23.25;;;14.20;;
10705;SDS011;5404;42.656;23.336;2024-02-14T06:13:18;23.92;;;14.50;;
10705;SDS011;5404;42.656;23.336;2024-02-14T06:15:44;22.25;;;13.35;;
10705;SDS011;5404;42.656;23.336;2024-02-14T06:18:10;22.55;;;13.55;;
10705;SDS011;5404;42.656;23.336;2024-02-14T06:20:36;21.40;;;13.18;;
10705;SDS011;5404;42.656;23.336;2024-02-14T06:23:01;28.38;;;14.18;;
10705;SDS011;5404;42.656;23.336;2024-02-14T06:25:27;24.77;;;13.43;;
10705;SDS011;5404;42.656;23.336;2024-02-14T06:27:52;20.77;;;12.57;;
10705;SDS011;5404;42.656;23.336;2024-02-14T06:30:19;21.67;;;13.30;;
10705;SDS011;5404;42.656;23.336;2024-02-14T06:32:44;23.65;;;13.25;;
10705;SDS011;5404;42.656;23.336;2024-02-14T06:35:10;23.17;;;13.77;;
10705;SDS011;5404;42.656;23.336;2024-02-14T06:37:35;24.00;;;13.20;;
10705;SDS011;5404;42.656;23.336;2024-02-14T06:40:01;24.08;;;12.20;;
10705;SDS011;5404;42.656;23.336;2024-02-14T06:42:26;25.08;;;13.32;;
10705;SDS011;5404;42.656;23.336;2024-02-14T06:44:51;19.95;;;12.35;;
10705;SDS011;5404;42.656;23.336;2024-02-14T06:47:17;25.45;;;12.18;;
10705;SDS011;5404;42.656;23.336;2024-02-14T06:49:43;22.35;;;12.65;;
10705;SDS011;5404;42.656;23.336;2024-02-14T06:52:08;21.23;;;12.95;;
10705;SDS011;5404;42.656;23.336;2024-02-14T06:54:34;19.63;;;11.75;;
10705;SDS011;5404;42.656;23.336;2024-02-14T06:56:59;19.90;;;12.30;;
10705;SDS011;5404;42.656;23.336;2024-02-14T06:59:25;19.92;;;12.10;;
10705;SDS011;5404;42.656;23.336;2024-02-14T07:01:51;24.33;;;12.13;;
10705;SDS011;5404;42.656;23.336;2024-02-14T07:04:19;29.65;;;14.30;;
10705;SDS011;5404;42.656;23.336;2024-02-14T07:06:51;32.35;;;13.73;;
10705;SDS011;5404;42.656;23.336;2024-02-14T07:09:18;51.60;;;18.23;;
10705;SDS011;5404;42.656;23.336;2024-02-14T07:11:44;37.90;;;15.75;;
10705;SDS011;5404;42.656;23.336;2024-02-14T07:14:11;22.10;;;12.32;;
10705;SDS011;5404;42.656;23.336;2024-02-14T07:16:36;39.30;;;16.10;;
10705;SDS011;5404;42.656;23.336;2024-02-14T07:19:02;37.15;;;17.00;;
10705;SDS011;5404;42.656;23.336;2024-02-14T07:21:27;34.03;;;13.70;;
10705;SDS011;5404;42.656;23.336;2024-02-14T07:23:53;26.40;;;11.90;;
10705;SDS011;5404;42.656;23.336;2024-02-14T07:26:18;24.10;;;13.23;;
10705;SDS011;5404;42.656;23.336;2024-02-14T07:28:44;19.92;;;11.82;;
10705;SDS011;5404;42.656;23.336;2024-02-14T07:31:09;26.67;;;13.23;;
10705;SDS011;5404;42.656;23.336;2024-02-14T07:33:35;23.05;;;11.93;;
10705;SDS011;5404;42.656;23.336;2024-02-14T07:36:00;20.38;;;9.90;;
10705;SDS011;5404;42.656;23.336;2024-02-14T07:38:25;16.58;;;9.07;;
10705;SDS011;5404;42.656;23.336;2024-02-14T07:40:51;20.10;;;10.05;;
10705;SDS011;5404;42.656;23.336;2024-02-14T07:43:17;15.70;;;10.45;;
10705;SDS011;5404;42.656;23.336;2024-02-14T07:45:43;17.08;;;10.07;;
10705;SDS011;5404;42.656;23.336;2024-02-14T07:48:08;17.52;;;10.00;;
10705;SDS011;5404;42.656;23.336;2024-02-14T07:50:34;18.05;;;9.82;;
10705;SDS011;5404;42.656;23.336;2024-02-14T07:53:01;19.13;;;10.75;;
10705;SDS011;5404;42.656;23.336;2024-02-14T07:55:26;20.52;;;9.68;;
10705;SDS011;5404;42.656;23.336;2024-02-14T07:57:52;19.02;;;9.88;;
10705;SDS011;5404;42.656;23.336;2024-02-14T08:00:18;18.35;;;10.30;;
10705;SDS011;5404;42.656;23.336;2024-02-14T08:02:48;14.88;;;10.25;;
10705;SDS011;5404;42.656;23.336;2024-02-14T08:05:13;17.23;;;10.52;;
10705;SDS011;5404;42.656;23.336;2024-02-14T08:07:39;16.92;;;9.82;;
10705;SDS011;5404;42.656;23.336;2024-02-14T08:10:04;17.95;;;10.05;;
10705;SDS011;5404;42.656;23.336;2024-02-14T08:12:30;13.98;;;9.48;;
10705;SDS011;5404;42.656;23.336;2024-02-14T08:14:56;17.20;;;10.15;;
10705;SDS011;5404;42.656;23.336;2024-02-14T08:17:23;19.08;;;11.82;;
10705;SDS011;5404;42.656;23.336;2024-02-14T08:19:48;19.08;;;11.00;;
10705;SDS011;5404;42.656;23.336;2024-02-14T08:22:13;18.90;;;11.75;;
10705;SDS011;5404;42.656;23.336;2024-02-14T08:24:39;16.35;;;10.38;;
10705;SDS011;5404;42.656;23.336;2024-02-14T08:27:04;21.95;;;11.30;;
10705;SDS011;5404;42.656;23.336;2024-02-14T08:29:31;23.98;;;11.85;;
10705;SDS011;5404;42.656;23.336;2024-02-14T08:31:57;16.13;;;10.40;;
10705;SDS011;5404;42.656;23.336;2024-02-14T08:34:22;17.88;;;9.93;;
10705;SDS011;5404;42.656;23.336;2024-02-14T08:36:48;16.65;;;10.23;;
10705;SDS011;5404;42.656;23.336;2024-02-14T08:39:15;17.38;;;10.07;;
10705;SDS011;5404;42.656;23.336;2024-02-14T08:41:43;18.85;;;10.82;;
10705;SDS011;5404;42.656;23.336;2024-02-14T08:44:09;15.82;;;10.00;;
10705;SDS011;5404;42.656;23.336;2024-02-14T08:46:35;15.77;;;9.52;;
10705;SDS011;5404;42.656;23.336;2024-02-14T08:49:00;16.38;;;9.30;;
10705;SDS011;5404;42.656;23.336;2024-02-14T08:51:33;17.13;;;9.43;;
10705;SDS011;5404;42.656;23.336;2024-02-14T08:53:59;13.65;;;8.95;;
10705;SDS011;5404;42.656;23.336;2024-02-14T08:56:25;13.70;;;8.95;;
10705;SDS011;5404;42.656;23.336;2024-02-14T08:58:50;15.00;;;9.43;;
10705;SDS011;5404;42.656;23.336;2024-02-14T09:01:16;14.98;;;9.18;;
10705;SDS011;5404;42.656;23.336;2024-02-14T09:03:42;20.30;;;9.75;;
10705;SDS011;5404;42.656;23.336;2024-02-14T09:06:16;14.98;;;9.73;;
10705;SDS011;5404;42.656;23.336;2024-02-14T09:11:10;15.73;;;9.25;;
10705;SDS011;5404;42.656;23.336;2024-02-14T09:13:37;14.93;;;8.90;;
10705;SDS011;5404;42.656;23.336;2024-02-14T09:16:03;13.85;;;9.38;;
10705;SDS011;5404;42.656;23.336;2024-02-14T09:18:28;17.80;;;8.60;;
10705;SDS011;5404;42.656;23.336;2024-02-14T09:20:56;16.20;;;9.57;;
10705;SDS011;5404;42.656;23.336;2024-02-14T09:23:22;15.35;;;9.27;;
10705;SDS011;5404;42.656;23.336;2024-02-14T09:25:48;17.02;;;10.05;;
10705;SDS011;5404;42.656;23.336;2024-02-14T09:28:15;21.35;;;11.60;;
10705;SDS011;5404;42.656;23.336;2024-02-14T09:30:41;14.23;;;9.82;;
10705;SDS011;5404;42.656;23.336;2024-02-14T09:33:06;17.92;;;10.70;;
10705;SDS011;5404;42.656;23.336;2024-02-14T09:35:32;21.83;;;10.57;;
10705;SDS011;5404;42.656;23.336;2024-02-14T09:37:57;16.17;;;10.02;;
10705;SDS011;5404;42.656;23.336;2024-02-14T09:40:24;19.27;;;9.90;;
10705;SDS011;5404;42.656;23.336;2024-02-14T09:42:54;17.67;;;10.20;;
10705;SDS011;5404;42.656;23.336;2024-02-14T09:45:21;19.92;;;10.80;;
10705;SDS011;5404;42.656;23.336;2024-02-14T09:47:49;18.55;;;9.95;;
10705;SDS011;5404;42.656;23.336;2024-02-14T09:50:16;15.82;;;10.23;;
10705;SDS011;5404;42.656;23.336;2024-02-14T09:52:42;18.48;;;10.85;;
10705;SDS011;5404;42.656;23.336;2024-02-14T09:55:09;23.77;;;11.05;;
10705;SDS011;5404;42.656;23.336;2024-02-14T09:57:37;19.58;;;9.75;;
10705;SDS011;5404;42.656;23.336;2024-02-14T10:00:06;21.60;;;13.38;;
10705;SDS011;5404;42.656;23.336;2024-02-14T10:02:34;14.73;;;7.85;;
10705;SDS011;5404;42.656;23.336;2024-02-14T10:05:00;17.50;;;9.38;;
10705;SDS011;5404;42.656;23.336;2024-02-14T10:07:26;15.98;;;9.75;;
10705;SDS011;5404;42.656;23.336;2024-02-14T10:09:52;17.35;;;9.60;;
10705;SDS011;5404;42.656;23.336;2024-02-14T10:12:19;16.45;;;9.30;;
10705;SDS011;5404;42.656;23.336;2024-02-14T10:14:44;18.45;;;10.23;;
10705;SDS011;5404;42.656;23.336;2024-02-14T10:17:17;15.88;;;8.90;;
10705;SDS011;5404;42.656;23.336;2024-02-14T10:20:06;18.73;;;9.60;;
10705;SDS011;5404;42.656;23.336;2024-02-14T10:22:35;15.80;;;8.98;;
10705;SDS011;5404;42.656;23.336;2024-02-14T10:25:02;14.73;;;9.32;;
10705;SDS011;5404;42.656;23.336;2024-02-14T10:27:29;13.00;;;7.60;;
10705;SDS011;5404;42.656;23.336;2024-02-14T10:29:57;15.50;;;8.95;;
10705;SDS011;5404;42.656;23.336;2024-02-14T10:32:22;16.00;;;8.57;;
10705;SDS011;5404;42.656;23.336;2024-02-14T10:34:49;15.20;;;9.60;;
10705;SDS011;5404;42.656;23.336;2024-02-14T10:37:15;16.55;;;8.52;;
10705;SDS011;5404;42.656;23.336;2024-02-14T10:39:43;16.33;;;8.82;;
10705;SDS011;5404;42.656;23.336;2024-02-14T10:42:12;12.90;;;9.18;;
10705;SDS011;5404;42.656;23.336;2024-02-14T10:44:39;13.60;;;8.73;;
10705;SDS011;5404;42.656;23.336;2024-02-14T10:47:05;15.13;;;8.77;;
10705;SDS011;5404;42.656;23.336;2024-02-14T10:49:34;12.02;;;8.35;;
10705;SDS011;5404;42.656;23.336;2024-02-14T10:52:02;12.40;;;7.38;;
10705;SDS011;5404;42.656;23.336;2024-02-14T10:54:32;12.40;;;9.35;;
10705;SDS011;5404;42.656;23.336;2024-02-14T10:57:02;17.15;;;9.18;;
10705;SDS011;5404;42.656;23.336;2024-02-14T10:59:37;16.45;;;8.15;;
10705;SDS011;5404;42.656;23.336;2024-02-14T11:02:06;24.00;;;9.32;;
10705;SDS011;5404;42.656;23.336;2024-02-14T11:04:32;13.32;;;8.13;;
10705;SDS011;5404;42.656;23.336;2024-02-14T11:06:58;16.65;;;8.63;;
10705;SDS011;5404;42.656;23.336;2024-02-14T11:09:33;15.57;;;9.00;;
10705;SDS011;5404;42.656;23.336;2024-02-14T11:12:01;13.35;;;8.10;;
10705;SDS011;5404;42.656;23.336;2024-02-14T11:14:36;14.70;;;8.15;;
10705;SDS011;5404;42.656;23.336;2024-02-14T11:17:08;12.30;;;8.35;;
10705;SDS011;5404;42.656;23.336;2024-02-14T11:19:35;12.00;;;8.23;;
10705;SDS011;5404;42.656;23.336;2024-02-14T11:22:13;15.65;;;8.63;;
10705;SDS011;5404;42.656;23.336;2024-02-14T11:24:45;16.02;;;8.90;;
10705;SDS011;5404;42.656;23.336;2024-02-14T11:27:11;15.35;;;8.35;;
10705;SDS011;5404;42.656;23.336;2024-02-14T11:29:38;19.13;;;10.05;;
10705;SDS011;5404;42.656;23.336;2024-02-14T11:32:06;14.02;;;8.43;;
10705;SDS011;5404;42.656;23.336;2024-02-14T11:34:33;16.63;;;8.33;;
10705;SDS011;5404;42.656;23.336;2024-02-14T11:36:59;20.60;;;8.25;;
10705;SDS011;5404;42.656;23.336;2024-02-14T11:39:28;16.73;;;8.88;;
10705;SDS011;5404;42.656;23.336;2024-02-14T11:41:53;24.73;;;9.70;;
10705;SDS011;5404;42.656;23.336;2024-02-14T11:44:23;14.35;;;8.77;;
10705;SDS011;5404;42.656;23.336;2024-02-14T11:46:49;21.90;;;9.93;;
10705;SDS011;5404;42.656;23.336;2024-02-14T11:49:14;19.80;;;9.40;;
10705;SDS011;5404;42.656;23.336;2024-02-14T11:51:42;16.52;;;8.80;;
10705;SDS011;5404;42.656;23.336;2024-02-14T11:54:07;14.00;;;8.90;;
10705;SDS011;5404;42.656;23.336;2024-02-14T11:56:35;11.40;;;8.45;;
10705;SDS011;5404;42.656;23.336;2024-02-14T11:59:04;16.60;;;8.35;;
10705;SDS011;5404;42.656;23.336;2024-02-14T12:01:33;13.47;;;8.13;;
10705;SDS011;5404;42.656;23.336;2024-02-14T12:04:00;17.60;;;9.30;;
10705;SDS011;5404;42.656;23.336;2024-02-14T12:06:27;16.25;;;9.50;;
10705;SDS011;5404;42.656;23.336;2024-02-14T12:08:53;20.35;;;9.50;;
10705;SDS011;5404;42.656;23.336;2024-02-14T12:11:20;17.38;;;8.63;;
10705;SDS011;5404;42.656;23.336;2024-02-14T12:13:49;14.20;;;8.85;;
10705;SDS011;5404;42.656;23.336;2024-02-14T12:16:15;14.80;;;8.68;;
10705;SDS011;5404;42.656;23.336;2024-02-14T12:18:41;13.90;;;7.93;;
10705;SDS011;5404;42.656;23.336;2024-02-14T12:21:06;14.50;;;9.10;;
10705;SDS011;5404;42.656;23.336;2024-02-14T12:23:32;14.52;;;8.82;;
10705;SDS011;5404;42.656;23.336;2024-02-14T12:26:01;18.23;;;9.52;;
10705;SDS011;5404;42.656;23.336;2024-02-14T12:28:28;18.40;;;8.80;;
10705;SDS011;5404;42.656;23.336;2024-02-14T12:30:56;15.50;;;8.85;;
10705;SDS011;5404;42.656;23.336;2024-02-14T12:33:23;15.75;;;8.35;;
10705;SDS011;5404;42.656;23.336;2024-02-14T12:35:50;16.73;;;8.85;;
10705;SDS011;5404;42.656;23.336;2024-02-14T12:38:18;13.25;;;8.30;;
10705;SDS011;5404;42.656;23.336;2024-02-14T12:40:44;19.40;;;9.13;;
10705;SDS011;5404;42.656;23.336;2024-02-14T12:43:12;15.90;;;8.73;;
10705;SDS011;5404;42.656;23.336;2024-02-14T12:45:38;17.48;;;7.78;;
10705;SDS011;5404;42.656;23.336;2024-02-14T12:48:05;16.30;;;8.23;;
10705;SDS011;5404;42.656;23.336;2024-02-14T12:50:31;13.65;;;8.73;;
10705;SDS011;5404;42.656;23.336;2024-02-14T12:52:57;15.63;;;8.65;;
10705;SDS011;5404;42.656;23.336;2024-02-14T12:55:23;13.85;;;8.43;;
10705;SDS011;5404;42.656;23.336;2024-02-14T12:57:51;15.95;;;7.90;;
10705;SDS011;5404;42.656;23.336;2024-02-14T13:00:17;16.95;;;7.95;;
10705;SDS011;5404;42.656;23.336;2024-02-14T13:02:43;22.40;;;8.32;;
10705;SDS011;5404;42.656;23.336;2024-02-14T13:05:09;22.45;;;8.85;;
10705;SDS011;5404;42.656;23.336;2024-02-14T13:07:34;14.73;;;8.70;;
10705;SDS011;5404;42.656;23.336;2024-02-14T13:10:00;13.85;;;7.35;;
10705;SDS011;5404;42.656;23.336;2024-02-14T13:12:26;11.07;;;8.05;;
10705;SDS011;5404;42.656;23.336;2024-02-14T13:14:51;18.13;;;8.75;;
10705;SDS011;5404;42.656;23.336;2024-02-14T13:17:17;14.30;;;7.85;;
10705;SDS011;5404;42.656;23.336;2024-02-14T13:19:42;15.40;;;8.98;;
10705;SDS011;5404;42.656;23.336;2024-02-14T13:22:08;18.02;;;7.97;;
10705;SDS011;5404;42.656;23.336;2024-02-14T13:24:34;17.77;;;7.80;;
10705;SDS011;5404;42.656;23.336;2024-02-14T13:26:59;16.83;;;8.23;;
10705;SDS011;5404;42.656;23.336;2024-02-14T13:29:24;16.90;;;8.82;;
10705;SDS011;5404;42.656;23.336;2024-02-14T13:31:50;20.00;;;8.40;;
10705;SDS011;5404;42.656;23.336;2024-02-14T13:34:16;17.77;;;8.10;;
10705;SDS011;5404;42.656;23.336;2024-02-14T13:36:44;17.48;;;8.52;;
10705;SDS011;5404;42.656;23.336;2024-02-14T13:39:10;23.92;;;9.35;;
10705;SDS011;5404;42.656;23.336;2024-02-14T13:41:37;20.10;;;9.65;;
10705;SDS011;5404;42.656;23.336;2024-02-14T13:44:04;18.33;;;8.30;;
10705;SDS011;5404;42.656;23.336;2024-02-14T13:46:31;20.10;;;11.15;;
10705;SDS011;5404;42.656;23.336;2024-02-14T13:48:57;21.85;;;10.73;;
10705;SDS011;5404;42.656;23.336;2024-02-14T13:51:23;33.60;;;10.98;;
10705;SDS011;5404;42.656;23.336;2024-02-14T13:53:48;39.47;;;14.52;;
10705;SDS011;5404;42.656;23.336;2024-02-14T13:56:14;34.60;;;13.43;;
10705;SDS011;5404;42.656;23.336;2024-02-14T13:58:41;27.73;;;10.52;;
10705;SDS011;5404;42.656;23.336;2024-02-14T14:01:06;23.05;;;9.23;;
10705;SDS011;5404;42.656;23.336;2024-02-14T14:03:32;21.05;;;9.60;;
10705;SDS011;5404;42.656;23.336;2024-02-14T14:05:59;25.27;;;11.75;;
10705;SDS011;5404;42.656;23.336;2024-02-14T14:08:25;27.92;;;9.65;;
10705;SDS011;5404;42.656;23.336;2024-02-14T14:10:50;23.77;;;7.95;;
10705;SDS011;5404;42.656;23.336;2024-02-14T14:13:16;16.88;;;7.65;;
10705;SDS011;5404;42.656;23.336;2024-02-14T14:15:41;16.00;;;7.60;;
10705;SDS011;5404;42.656;23.336;2024-02-14T14:18:07;13.98;;;8.05;;
10705;SDS011;5404;42.656;23.336;2024-02-14T14:20:33;13.43;;;7.82;;
10705;SDS011;5404;42.656;23.336;2024-02-14T14:22:59;18.40;;;8.50;;
10705;SDS011;5404;42.656;23.336;2024-02-14T14:25:25;15.85;;;7.70;;